Time;durP1;ratioP1;P1;durP2;ratioP2;P2;SDS_P1;SDS_P2;PMS_P1;PMS_P2;Temp;Humidity;BMP_temperature;BMP_pressure;BME280_temperature;BME280_humidity;BME280_pressure;Samples;Min_cycle;Max_cycle;Signal;HPM_P1;HPM_P2
2022/09/21 00:00:15;;;;;;;1.90;1.80;;;7.10;99.90;;;;;;497374;239;28007;-68
2022/09/21 00:02:16;;;;;;;2.33;2.12;;;7.10;99.90;;;;;;497352;239;29206;-67
2022/09/21 00:04:17;;;;;;;2.05;1.95;;;7.00;99.90;;;;;;497366;239;27389;-66
2022/09/21 00:06:18;;;;;;;2.10;2.00;;;7.00;99.90;;;;;;497279;239;27416;-66
2022/09/21 00:08:20;;;;;;;2.15;2.05;;;7.00;99.90;;;;;;497373;239;28107;-69
2022/09/21 00:10:21;;;;;;;2.12;1.90;;;6.90;99.90;;;;;;497350;239;27436;-68
2022/09/21 00:12:22;;;;;;;2.40;1.90;;;6.90;99.90;;;;;;497365;239;27466;-68
2022/09/21 00:14:24;;;;;;;3.17;2.00;;;6.90;99.90;;;;;;497338;239;28866;-68
2022/09/21 00:16:25;;;;;;;2.10;2.00;;;6.90;99.90;;;;;;497295;239;28005;-67
2022/09/21 00:18:26;;;;;;;3.42;2.00;;;6.90;99.90;;;;;;497373;239;27951;-68
2022/09/21 00:20:28;;;;;;;2.22;2.03;;;6.80;99.90;;;;;;497355;239;27444;-68
2022/09/21 00:22:28;;;;;;;2.17;2.08;;;6.80;99.90;;;;;;497254;237;27412;-70
2022/09/21 00:24:30;;;;;;;2.17;2.08;;;6.70;99.90;;;;;;497327;239;27387;-68
2022/09/21 00:26:31;;;;;;;2.58;2.42;;;6.70;99.90;;;;;;497284;239;27540;-69
2022/09/21 00:28:32;;;;;;;2.37;2.17;;;6.70;99.90;;;;;;497374;239;27870;-70
2022/09/21 00:30:33;;;;;;;2.03;1.92;;;6.70;99.90;;;;;;497351;239;28708;-69
2022/09/21 00:32:35;;;;;;;2.03;1.93;;;6.70;99.90;;;;;;497344;239;28113;-69
2022/09/21 00:34:36;;;;;;;2.10;2.00;;;6.60;99.90;;;;;;497370;239;28834;-68
2022/09/21 00:36:37;;;;;;;2.30;2.10;;;6.60;99.90;;;;;;497315;239;27496;-69
2022/09/21 00:38:38;;;;;;;2.03;1.92;;;6.50;99.90;;;;;;497378;239;27405;-72
2022/09/21 00:40:40;;;;;;;1.87;1.77;;;6.50;99.90;;;;;;497370;239;27373;-68
2022/09/21 00:42:41;;;;;;;2.33;2.20;;;6.50;99.90;;;;;;497385;239;27415;-65
2022/09/21 00:44:42;;;;;;;2.27;2.17;;;6.50;99.90;;;;;;497384;239;27440;-65
2022/09/21 00:46:43;;;;;;;2.35;2.25;;;6.50;99.90;;;;;;497123;239;29264;-69
2022/09/21 00:48:45;;;;;;;2.05;1.95;;;6.50;99.90;;;;;;497356;239;27883;-70
2022/09/21 00:50:46;;;;;;;4.30;1.90;;;6.50;99.90;;;;;;497382;239;27386;-65
2022/09/21 00:52:47;;;;;;;1.97;1.90;;;6.50;99.90;;;;;;490673;239;27858;-70
2022/09/21 00:54:48;;;;;;;1.83;1.70;;;6.50;99.90;;;;;;485457;245;28084;-66
2022/09/21 00:56:50;;;;;;;1.87;1.77;;;6.40;99.90;;;;;;485384;245;27497;-68
2022/09/21 00:58:51;;;;;;;2.10;2.00;;;6.40;99.90;;;;;;485435;245;27524;-68
2022/09/21 01:00:52;;;;;;;1.90;1.80;;;6.40;99.90;;;;;;485439;245;27408;-66
2022/09/21 01:03:00;;;;;;;2.00;1.90;;;6.40;99.90;;;;;;485460;245;27989;-68
2022/09/21 01:04:55;;;;;;;2.00;1.90;;;6.30;99.90;;;;;;485002;245;27948;-65
2022/09/21 01:06:56;;;;;;;2.10;2.00;;;6.30;99.90;;;;;;485372;245;27412;-66
2022/09/21 01:08:58;;;;;;;2.17;2.08;;;6.30;99.90;;;;;;485452;245;27436;-73
2022/09/21 01:10:59;;;;;;;2.03;1.92;;;6.30;99.90;;;;;;485430;245;27422;-67
2022/09/21 01:13:00;;;;;;;2.15;2.05;;;6.30;99.90;;;;;;485433;245;27535;-69
2022/09/21 01:15:01;;;;;;;2.10;2.00;;;6.20;99.90;;;;;;485443;245;27402;-68
2022/09/21 01:17:02;;;;;;;2.40;2.20;;;6.20;99.90;;;;;;485336;245;27865;-68
2022/09/21 01:19:04;;;;;;;2.15;2.05;;;6.20;99.90;;;;;;485439;245;27528;-67
2022/09/21 01:21:05;;;;;;;2.20;2.10;;;6.20;99.90;;;;;;485452;245;27480;-66
2022/09/21 01:23:06;;;;;;;2.15;2.05;;;6.20;99.90;;;;;;485387;245;27418;-67
2022/09/21 01:25:07;;;;;;;2.25;2.15;;;6.20;99.90;;;;;;485451;245;27543;-66
2022/09/21 01:27:09;;;;;;;2.17;2.08;;;6.10;99.90;;;;;;485388;245;27485;-66
2022/09/21 01:29:10;;;;;;;2.03;1.92;;;6.10;99.90;;;;;;485451;245;27906;-70
2022/09/21 01:31:11;;;;;;;2.20;2.00;;;6.00;99.90;;;;;;485461;245;27969;-68
2022/09/21 01:33:12;;;;;;;2.00;1.90;;;6.10;99.90;;;;;;485405;245;27432;-69
2022/09/21 01:35:14;;;;;;;2.17;2.00;;;6.10;99.90;;;;;;485432;245;27454;-68
2022/09/21 01:37:15;;;;;;;2.50;2.40;;;6.00;99.90;;;;;;485364;245;27481;-68
2022/09/21 01:39:16;;;;;;;2.30;2.10;;;6.00;99.90;;;;;;485416;245;27426;-69
2022/09/21 01:41:18;;;;;;;2.00;1.90;;;6.00;99.90;;;;;;485455;245;27406;-67
2022/09/21 01:43:19;;;;;;;1.87;1.80;;;5.90;99.90;;;;;;485341;237;27990;-68
2022/09/21 01:45:20;;;;;;;2.05;1.95;;;5.90;99.90;;;;;;484416;244;28091;-68
2022/09/21 01:47:21;;;;;;;2.05;1.95;;;5.90;99.90;;;;;;484378;244;27481;-69
2022/09/21 01:49:22;;;;;;;2.12;2.03;;;5.90;99.90;;;;;;484466;244;27493;-69
2022/09/21 01:51:24;;;;;;;2.20;2.10;;;5.80;99.90;;;;;;484431;244;27454;-68
2022/09/21 01:53:25;;;;;;;2.10;2.00;;;5.80;99.90;;;;;;484450;245;27500;-68
2022/09/21 01:55:28;;;;;;;1.85;1.75;;;5.70;99.90;;;;;;484464;244;27538;-71
2022/09/21 01:57:27;;;;;;;2.10;2.00;;;5.70;99.90;;;;;;484248;244;27485;-68
2022/09/21 01:59:29;;;;;;;2.20;2.10;;;5.70;99.90;;;;;;484415;244;27985;-70
2022/09/21 02:01:30;;;;;;;2.10;2.00;;;5.60;99.90;;;;;;484399;244;27945;-69
2022/09/21 02:03:31;;;;;;;1.80;1.70;;;5.60;99.90;;;;;;484432;245;27501;-68
2022/09/21 02:05:33;;;;;;;2.45;2.28;;;5.60;99.90;;;;;;484428;244;27616;-71
2022/09/21 02:07:34;;;;;;;2.10;2.00;;;5.60;99.90;;;;;;484324;245;27478;-68
2022/09/21 02:09:36;;;;;;;2.12;2.03;;;5.60;99.90;;;;;;484392;244;27500;-70
2022/09/21 02:11:42;;;;;;;2.15;2.05;;;5.60;99.90;;;;;;484437;244;27600;-68
2022/09/21 02:13:41;;;;;;;2.20;2.10;;;5.60;99.90;;;;;;484280;245;27604;-71
2022/09/21 02:15:42;;;;;;;1.90;1.80;;;5.60;99.90;;;;;;484408;245;27603;-69
2022/09/21 02:17:45;;;;;;;2.87;2.12;;;5.50;99.90;;;;;;484349;244;27506;-71
2022/09/21 02:19:45;;;;;;;2.10;2.00;;;5.60;99.90;;;;;;484349;245;28053;-68
2022/09/21 02:21:46;;;;;;;2.00;1.90;;;5.60;99.90;;;;;;484405;244;27977;-69
2022/09/21 02:23:48;;;;;;;2.20;2.10;;;5.60;99.90;;;;;;484406;244;27519;-67
2022/09/21 02:25:48;;;;;;;2.25;2.05;;;5.50;99.90;;;;;;484374;244;27474;-68
2022/09/21 02:27:50;;;;;;;2.20;2.10;;;5.50;99.90;;;;;;484362;245;27625;-71
2022/09/21 02:29:51;;;;;;;2.35;2.17;;;5.50;99.90;;;;;;484420;244;27608;-68
2022/09/21 02:31:52;;;;;;;2.03;1.92;;;5.50;99.90;;;;;;484400;245;27513;-68
2022/09/21 02:33:54;;;;;;;2.05;1.95;;;5.50;99.90;;;;;;484414;244;27870;-70
2022/09/21 02:35:54;;;;;;;1.92;1.85;;;5.50;99.90;;;;;;484370;245;27941;-68
2022/09/21 02:37:56;;;;;;;2.15;2.05;;;5.50;99.90;;;;;;484353;244;27988;-70
2022/09/21 02:39:57;;;;;;;2.12;2.03;;;5.50;99.90;;;;;;484388;244;27497;-68
2022/09/21 02:42:00;;;;;;;1.83;1.73;;;5.40;99.90;;;;;;484405;245;27515;-69
2022/09/21 02:43:59;;;;;;;2.20;2.10;;;5.40;99.90;;;;;;488515;242;27505;-67
2022/09/21 02:46:03;;;;;;;2.40;2.20;;;5.40;99.90;;;;;;491975;242;27462;-69
2022/09/21 02:48:02;;;;;;;1.85;1.75;;;5.30;99.90;;;;;;491781;242;27415;-69
2022/09/21 02:50:03;;;;;;;2.30;2.03;;;5.40;99.90;;;;;;491941;242;27435;-68
2022/09/21 02:52:04;;;;;;;2.42;2.22;;;5.30;99.90;;;;;;491956;242;27871;-68
2022/09/21 02:54:06;;;;;;;2.97;1.92;;;5.30;99.90;;;;;;491844;242;27959;-68
2022/09/21 02:56:07;;;;;;;1.95;1.85;;;5.30;99.90;;;;;;491877;242;27907;-71
2022/09/21 02:58:08;;;;;;;2.35;2.08;;;5.30;99.90;;;;;;491934;242;27407;-70
2022/09/21 03:00:09;;;;;;;2.40;2.20;;;5.30;99.90;;;;;;491967;242;27360;-68
2022/09/21 03:02:14;;;;;;;2.40;2.30;;;5.20;99.90;;;;;;491959;242;27502;-68
2022/09/21 03:04:12;;;;;;;2.12;2.03;;;5.20;99.90;;;;;;491821;242;28328;-68
2022/09/21 03:06:13;;;;;;;2.20;2.03;;;5.30;99.90;;;;;;491883;242;27831;-68
2022/09/21 03:08:15;;;;;;;2.20;2.10;;;5.30;99.90;;;;;;491952;242;27491;-70
2022/09/21 03:10:17;;;;;;;1.80;1.70;;;5.30;99.90;;;;;;491981;242;27372;-68
2022/09/21 03:12:17;;;;;;;2.97;2.28;;;5.30;99.90;;;;;;491911;242;27485;-67
2022/09/21 03:14:18;;;;;;;2.30;2.20;;;5.20;99.90;;;;;;491975;242;27491;-68
2022/09/21 03:16:20;;;;;;;1.75;1.73;;;5.20;99.90;;;;;;491902;242;27431;-69
2022/09/21 03:18:21;;;;;;;2.22;2.12;;;5.20;99.90;;;;;;491924;242;27499;-69
2022/09/21 03:20:22;;;;;;;2.03;1.92;;;5.20;99.90;;;;;;491956;242;27467;-68
2022/09/21 03:22:23;;;;;;;2.25;2.15;;;5.20;99.90;;;;;;491926;242;27971;-69
2022/09/21 03:26:45;;;;;;;1.90;1.80;;;5.20;99.90;;;;;;491872;242;27918;-68
2022/09/21 03:28:46;;;;;;;2.20;2.10;;;5.20;99.90;;;;;;491919;242;27927;-68
2022/09/21 03:30:47;;;;;;;2.05;1.95;;;5.10;99.90;;;;;;491969;242;28013;-71
2022/09/21 03:32:48;;;;;;;2.00;1.90;;;5.10;99.90;;;;;;491547;242;27504;-68
2022/09/21 03:34:49;;;;;;;2.15;2.05;;;5.00;99.90;;;;;;491727;242;27502;-68
2022/09/21 03:36:50;;;;;;;1.90;1.80;;;5.00;99.90;;;;;;491787;242;27522;-68
2022/09/21 03:38:52;;;;;;;1.95;1.85;;;4.90;99.90;;;;;;491847;242;27421;-68
2022/09/21 03:40:56;;;;;;;2.05;1.95;;;4.90;99.90;;;;;;491954;242;27511;-71
2022/09/21 03:42:54;;;;;;;2.15;2.05;;;4.90;99.90;;;;;;491750;242;27474;-68
2022/09/21 03:44:55;;;;;;;5.22;2.15;;;4.90;99.90;;;;;;491956;242;27492;-69
2022/09/21 03:46:57;;;;;;;2.30;2.20;;;4.80;99.90;;;;;;491803;242;27896;-68
2022/09/21 03:48:58;;;;;;;2.15;2.05;;;4.80;99.90;;;;;;491965;242;27975;-68
2022/09/21 03:50:59;;;;;;;2.60;2.35;;;4.80;99.90;;;;;;491950;242;27969;-71
2022/09/21 03:53:01;;;;;;;2.20;2.10;;;4.80;99.90;;;;;;491930;242;27449;-68
2022/09/21 03:55:03;;;;;;;2.15;2.05;;;4.80;99.90;;;;;;491955;242;27514;-70
2022/09/21 03:57:03;;;;;;;2.22;2.10;;;4.80;99.90;;;;;;491766;242;27451;-67
2022/09/21 03:59:05;;;;;;;2.20;2.10;;;4.80;99.90;;;;;;491948;242;27519;-68
2022/09/21 04:01:06;;;;;;;2.55;2.35;;;4.80;99.90;;;;;;491959;242;27494;-68
2022/09/21 04:03:07;;;;;;;2.20;2.10;;;4.80;99.90;;;;;;491947;242;27417;-67
2022/09/21 04:05:08;;;;;;;2.05;1.95;;;4.80;99.90;;;;;;491969;242;27376;-68
2022/09/21 04:07:09;;;;;;;2.50;2.30;;;4.80;99.90;;;;;;491617;242;27380;-68
2022/09/21 04:09:11;;;;;;;2.00;1.90;;;4.90;99.90;;;;;;491993;242;27514;-68
2022/09/21 04:11:12;;;;;;;2.08;1.98;;;4.80;99.90;;;;;;491799;242;28082;-68
2022/09/21 04:13:13;;;;;;;1.90;1.80;;;4.80;99.90;;;;;;491972;242;27932;-68
2022/09/21 04:15:14;;;;;;;2.25;2.10;;;4.90;99.90;;;;;;491960;242;27458;-70
2022/09/21 04:17:16;;;;;;;3.55;1.98;;;4.90;99.90;;;;;;491864;242;27431;-68
2022/09/21 04:19:17;;;;;;;2.30;2.10;;;4.90;99.90;;;;;;491930;242;27431;-68
2022/09/21 04:21:18;;;;;;;2.58;2.47;;;4.80;99.90;;;;;;491971;242;27465;-68
2022/09/21 04:23:20;;;;;;;2.00;1.90;;;4.60;99.90;;;;;;491978;242;27385;-68
2022/09/21 04:25:21;;;;;;;2.20;2.10;;;4.70;99.90;;;;;;491961;242;27486;-69
2022/09/21 04:27:22;;;;;;;2.00;1.90;;;4.70;99.90;;;;;;491710;242;27396;-65
2022/09/21 04:29:23;;;;;;;2.50;2.40;;;4.70;99.90;;;;;;491961;242;27500;-66
2022/09/21 04:31:24;;;;;;;2.30;2.20;;;4.80;99.90;;;;;;491958;242;28599;-66
2022/09/21 04:33:26;;;;;;;2.00;1.90;;;4.70;99.90;;;;;;491952;242;27835;-66
2022/09/21 04:35:27;;;;;;;2.28;2.17;;;4.70;99.90;;;;;;491958;242;27895;-67
2022/09/21 04:37:28;;;;;;;2.20;2.10;;;4.70;99.90;;;;;;491813;242;27360;-66
2022/09/21 04:39:29;;;;;;;3.03;2.83;;;4.70;99.90;;;;;;491936;242;27428;-66
2022/09/21 04:41:31;;;;;;;2.47;2.37;;;4.50;99.90;;;;;;491930;242;27565;-65
2022/09/21 04:43:32;;;;;;;2.90;2.75;;;4.50;99.90;;;;;;491975;242;27554;-65
2022/09/21 04:45:34;;;;;;;3.05;2.75;;;4.50;99.90;;;;;;491965;242;27428;-69
2022/09/21 04:47:34;;;;;;;3.30;3.03;;;4.50;99.90;;;;;;491847;242;27467;-68
2022/09/21 04:49:37;;;;;;;3.20;3.00;;;4.50;99.90;;;;;;491979;242;27484;-68
2022/09/21 04:51:37;;;;;;;4.72;2.83;;;4.50;99.90;;;;;;491775;242;27415;-70
2022/09/21 04:53:38;;;;;;;2.95;2.70;;;4.50;99.90;;;;;;491212;242;27898;-68
2022/09/21 04:55:39;;;;;;;2.25;2.10;;;4.50;99.90;;;;;;491627;242;28110;-68
2022/09/21 04:57:41;;;;;;;2.22;2.12;;;4.50;99.90;;;;;;491619;242;27843;-67
2022/09/21 04:59:42;;;;;;;2.72;2.50;;;4.50;99.90;;;;;;491697;242;27404;-68
2022/09/21 05:01:43;;;;;;;3.20;3.00;;;4.40;99.90;;;;;;491948;242;27487;-68
2022/09/21 05:03:44;;;;;;;2.60;2.40;;;4.40;99.90;;;;;;469393;242;27522;-68
2022/09/21 05:05:46;;;;;;;2.53;2.33;;;4.50;99.90;;;;;;467805;254;27707;-69
2022/09/21 05:07:47;;;;;;;2.33;2.22;;;4.50;99.90;;;;;;467681;254;27536;-68
2022/09/21 05:10:03;;;;;;;2.58;2.40;;;4.50;99.90;;;;;;467804;254;27571;-67
2022/09/21 05:12:05;;;;;;;2.58;2.17;;;4.50;99.90;;;;;;467829;254;27607;-68
2022/09/21 05:14:06;;;;;;;2.35;2.25;;;4.60;99.90;;;;;;467819;254;28019;-68
2022/09/21 05:16:07;;;;;;;2.42;2.33;;;4.60;99.90;;;;;;467698;254;28759;-69
2022/09/21 05:18:09;;;;;;;2.45;2.35;;;4.50;99.90;;;;;;467828;254;27988;-68
2022/09/21 05:20:10;;;;;;;2.37;2.28;;;4.60;99.90;;;;;;467831;254;27583;-70
2022/09/21 05:22:11;;;;;;;2.30;2.20;;;4.60;99.90;;;;;;467854;254;27531;-69
2022/09/21 05:24:12;;;;;;;2.22;2.12;;;4.70;99.90;;;;;;467830;254;27651;-69
2022/09/21 05:26:14;;;;;;;2.33;2.22;;;4.70;99.90;;;;;;467755;254;27571;-68
2022/09/21 05:28:15;;;;;;;2.45;2.35;;;4.80;99.90;;;;;;467862;254;27646;-68
2022/09/21 05:30:16;;;;;;;2.20;2.10;;;4.80;99.90;;;;;;467845;254;27583;-70
2022/09/21 05:32:17;;;;;;;2.35;2.25;;;4.80;99.90;;;;;;467819;254;27555;-68
2022/09/21 05:34:19;;;;;;;2.42;2.33;;;4.80;99.90;;;;;;467839;254;28109;-69
2022/09/21 05:36:20;;;;;;;2.35;2.20;;;4.80;99.90;;;;;;467689;254;28143;-68
2022/09/21 05:38:21;;;;;;;2.15;2.05;;;4.80;99.90;;;;;;467855;254;27994;-69
2022/09/21 05:40:22;;;;;;;2.40;2.30;;;4.90;99.90;;;;;;467841;254;27616;-69
2022/09/21 05:42:24;;;;;;;2.35;2.25;;;4.90;99.90;;;;;;467840;254;27536;-68
2022/09/21 05:44:25;;;;;;;2.20;2.00;;;4.90;99.90;;;;;;467729;254;27562;-69
2022/09/21 05:46:26;;;;;;;2.08;1.98;;;5.00;99.90;;;;;;467680;254;27664;-72
2022/09/21 05:48:27;;;;;;;2.30;2.20;;;5.00;99.90;;;;;;467856;254;27547;-69
2022/09/21 05:50:29;;;;;;;2.30;2.10;;;5.00;99.90;;;;;;467866;254;27584;-68
2022/09/21 05:52:30;;;;;;;2.30;2.17;;;5.10;99.90;;;;;;467869;254;27619;-68
2022/09/21 05:54:31;;;;;;;2.47;2.30;;;5.10;99.90;;;;;;467863;254;27997;-68
2022/09/21 05:56:32;;;;;;;2.25;2.15;;;5.10;99.90;;;;;;467793;254;28230;-69
2022/09/21 05:58:34;;;;;;;2.70;2.50;;;5.10;99.90;;;;;;467843;254;28087;-67
2022/09/21 06:00:35;;;;;;;2.80;2.60;;;5.10;99.90;;;;;;467806;254;27689;-70
2022/09/21 06:02:36;;;;;;;3.00;2.80;;;5.10;99.90;;;;;;467830;254;27575;-68
2022/09/21 06:04:37;;;;;;;2.45;2.35;;;5.00;99.90;;;;;;467839;254;27526;-68
2022/09/21 06:06:39;;;;;;;2.90;2.70;;;5.00;99.90;;;;;;467781;254;27591;-70
2022/09/21 06:08:40;;;;;;;2.85;2.65;;;5.00;99.90;;;;;;467834;254;27632;-68
2022/09/21 06:10:41;;;;;;;3.08;2.72;;;5.00;99.90;;;;;;467822;254;27684;-68
2022/09/21 06:12:42;;;;;;;3.00;2.80;;;5.00;99.90;;;;;;467817;254;27535;-68
2022/09/21 06:14:44;;;;;;;3.08;2.72;;;4.90;99.90;;;;;;467834;254;28128;-67
2022/09/21 06:16:45;;;;;;;2.78;2.58;;;4.90;99.90;;;;;;467790;254;28093;-69
2022/09/21 06:18:46;;;;;;;2.72;2.53;;;4.90;99.90;;;;;;467838;254;27659;-69
2022/09/21 06:20:47;;;;;;;2.67;2.47;;;4.90;99.90;;;;;;467839;254;27614;-66
2022/09/21 06:22:49;;;;;;;2.60;2.42;;;4.90;99.90;;;;;;467832;254;27656;-66
2022/09/21 06:24:50;;;;;;;2.25;2.10;;;5.00;99.90;;;;;;467853;254;27535;-66
2022/09/21 06:26:51;;;;;;;2.33;2.20;;;5.00;99.90;;;;;;467793;254;27685;-66
2022/09/21 06:28:52;;;;;;;2.33;2.20;;;5.00;99.90;;;;;;467821;254;27547;-65
2022/09/21 06:30:54;;;;;;;2.08;1.98;;;5.10;99.90;;;;;;467745;254;27589;-65
2022/09/21 06:32:55;;;;;;;2.30;2.20;;;5.10;99.90;;;;;;467842;254;28680;-71
2022/09/21 06:34:56;;;;;;;2.10;2.00;;;5.20;99.90;;;;;;467807;254;28193;-69
2022/09/21 06:36:58;;;;;;;2.00;1.90;;;5.30;99.90;;;;;;467650;254;28168;-68
2022/09/21 06:38:59;;;;;;;1.92;1.83;;;5.30;99.90;;;;;;467622;254;27641;-68
2022/09/21 06:41:00;;;;;;;1.90;1.80;;;5.50;99.90;;;;;;467648;254;27594;-68
2022/09/21 06:43:01;;;;;;;2.75;2.40;;;5.50;99.90;;;;;;467671;254;27570;-68
2022/09/21 06:45:03;;;;;;;2.30;2.20;;;5.60;99.90;;;;;;467680;254;27535;-68
2022/09/21 06:47:04;;;;;;;2.08;1.98;;;5.70;99.90;;;;;;467767;254;27609;-69
2022/09/21 06:49:05;;;;;;;2.10;2.00;;;5.80;99.90;;;;;;467856;254;27539;-68
2022/09/21 06:51:06;;;;;;;2.10;2.00;;;5.80;99.90;;;;;;467811;254;27594;-68
2022/09/21 06:53:08;;;;;;;3.15;2.50;;;5.90;99.90;;;;;;467850;250;28062;-70
2022/09/21 06:55:09;;;;;;;2.30;2.20;;;5.90;99.90;;;;;;467846;254;28007;-69
2022/09/21 06:57:10;;;;;;;2.17;2.08;;;6.00;99.90;;;;;;467737;254;27655;-69
2022/09/21 06:59:11;;;;;;;1.83;1.73;;;6.00;99.90;;;;;;467842;254;27596;-69
2022/09/21 07:01:13;;;;;;;2.22;2.05;;;6.10;99.90;;;;;;467843;254;27716;-68
2022/09/21 07:03:14;;;;;;;2.00;1.90;;;6.10;99.90;;;;;;467856;254;27602;-70
2022/09/21 07:05:15;;;;;;;2.05;1.95;;;6.10;99.90;;;;;;467825;254;27555;-68
2022/09/21 07:07:16;;;;;;;1.75;1.65;;;6.30;99.90;;;;;;467788;254;28046;-69
2022/09/21 07:09:18;;;;;;;2.00;1.90;;;6.40;99.90;;;;;;467787;254;28880;-68
2022/09/21 07:11:19;;;;;;;2.20;2.10;;;6.60;99.90;;;;;;467847;254;27543;-68
2022/09/21 07:13:20;;;;;;;2.05;1.85;;;6.70;99.90;;;;;;467825;254;27576;-68
2022/09/21 07:15:22;;;;;;;1.85;1.75;;;6.80;99.90;;;;;;467839;254;27529;-66
2022/09/21 07:17:23;;;;;;;1.90;1.80;;;6.90;99.90;;;;;;467788;254;27581;-68
2022/09/21 07:19:24;;;;;;;2.20;2.10;;;7.10;99.90;;;;;;467867;254;27531;-68
2022/09/21 07:21:25;;;;;;;2.15;1.83;;;7.50;99.90;;;;;;467833;254;27598;-68
2022/09/21 07:23:26;;;;;;;2.05;1.95;;;7.70;99.90;;;;;;467692;254;28053;-70
2022/09/21 07:25:28;;;;;;;2.70;2.47;;;7.70;99.90;;;;;;467859;254;28094;-68
2022/09/21 07:27:29;;;;;;;2.80;2.33;;;7.90;99.90;;;;;;467765;254;28939;-68
2022/09/21 07:29:31;;;;;;;2.50;2.30;;;8.50;99.90;;;;;;467840;254;27556;-68
2022/09/21 07:31:31;;;;;;;2.77;2.30;;;8.40;99.90;;;;;;467774;254;28463;-70
2022/09/21 07:33:33;;;;;;;2.87;2.40;;;8.50;99.90;;;;;;467881;254;27852;-70
2022/09/21 07:35:34;;;;;;;3.90;2.43;;;8.80;99.90;;;;;;467875;254;27676;-68
2022/09/21 07:37:35;;;;;;;4.77;2.30;;;8.80;99.90;;;;;;467787;254;28172;-68
2022/09/21 07:39:37;;;;;;;2.00;1.90;;;8.80;99.90;;;;;;467841;254;28038;-73
2022/09/21 07:41:38;;;;;;;5.00;2.63;;;8.90;99.90;;;;;;467817;254;27672;-69
2022/09/21 07:43:39;;;;;;;5.47;2.40;;;9.10;99.90;;;;;;467875;254;28028;-69
2022/09/21 07:45:40;;;;;;;7.57;2.43;;;9.30;99.90;;;;;;467876;254;27762;-68
2022/09/21 07:47:41;;;;;;;2.70;2.20;;;9.40;99.90;;;;;;467802;254;28011;-68
2022/09/21 07:49:43;;;;;;;2.47;2.27;;;9.60;99.90;;;;;;467872;254;29120;-69
2022/09/21 07:51:44;;;;;;;5.07;2.57;;;9.60;99.90;;;;;;467880;254;28446;-68
2022/09/21 07:53:45;;;;;;;6.27;2.40;;;9.70;99.90;;;;;;467858;254;28529;-70
2022/09/21 07:55:46;;;;;;;3.93;2.63;;;9.80;99.90;;;;;;467877;254;28554;-68
2022/09/21 08:00:08;;;;;;;3.60;2.83;;;10.10;99.90;;;;;;467854;254;28576;-72
2022/09/21 08:02:08;;;;;;;5.93;2.87;;;10.20;99.90;;;;;;467853;254;28489;-69
2022/09/21 08:04:10;;;;;;;4.33;2.47;;;10.20;99.90;;;;;;467857;254;28559;-70
2022/09/21 08:06:11;;;;;;;3.17;2.43;;;10.30;99.90;;;;;;467781;254;28102;-68
2022/09/21 08:08:12;;;;;;;3.50;2.53;;;10.30;99.90;;;;;;467725;254;28198;-68
2022/09/21 08:10:13;;;;;;;8.80;2.90;;;10.40;99.90;;;;;;467889;254;28143;-71
2022/09/21 08:12:17;;;;;;;4.80;2.50;;;10.40;99.90;;;;;;467858;254;27915;-68
2022/09/21 08:14:19;;;;;;;4.73;2.67;;;10.50;99.90;;;;;;467723;254;27927;-70
2022/09/21 08:16:17;;;;;;;5.57;2.57;;;10.30;99.90;;;;;;467480;253;27801;-70
2022/09/21 08:18:18;;;;;;;2.00;1.90;;;10.30;99.90;;;;;;467862;254;28012;-69
2022/09/21 08:20:20;;;;;;;2.10;1.90;;;10.40;99.90;;;;;;467868;254;27939;-71
2022/09/21 08:22:23;;;;;;;4.90;2.40;;;10.50;99.90;;;;;;467840;254;28200;-68
2022/09/21 08:24:22;;;;;;;3.90;2.30;;;10.60;99.90;;;;;;467688;254;28581;-69
2022/09/21 08:26:23;;;;;;;4.93;2.50;;;10.70;99.90;;;;;;467805;254;29155;-69
2022/09/21 08:28:25;;;;;;;2.60;2.07;;;10.60;99.90;;;;;;467854;254;28640;-70
2022/09/21 08:30:27;;;;;;;2.00;1.90;;;10.40;99.90;;;;;;467878;254;28619;-72
2022/09/21 08:32:27;;;;;;;2.43;2.30;;;10.60;99.90;;;;;;467853;254;28162;-68
2022/09/21 08:34:28;;;;;;;3.47;2.30;;;10.80;99.90;;;;;;467858;254;28018;-69
2022/09/21 08:36:30;;;;;;;3.70;1.80;;;11.00;99.90;;;;;;467764;254;28008;-69
2022/09/21 08:38:31;;;;;;;3.27;1.80;;;11.00;99.90;;;;;;467874;254;27936;-68
2022/09/21 08:40:33;;;;;;;1.90;1.80;;;11.00;99.90;;;;;;467862;254;28083;-69
2022/09/21 08:42:33;;;;;;;2.60;1.67;;;11.30;99.90;;;;;;467818;254;27988;-68
2022/09/21 08:44:35;;;;;;;6.23;1.97;;;11.30;99.90;;;;;;467862;254;28144;-70
2022/09/21 08:46:36;;;;;;;1.90;1.80;;;11.30;99.90;;;;;;467784;254;28032;-69
2022/09/21 08:48:39;;;;;;;2.47;1.97;;;11.40;99.90;;;;;;467862;254;28654;-69
2022/09/21 08:50:39;;;;;;;2.40;1.67;;;11.30;99.90;;;;;;467846;254;28635;-71
2022/09/21 08:52:40;;;;;;;2.27;1.97;;;11.20;99.90;;;;;;467880;254;28620;-69
2022/09/21 08:54:41;;;;;;;4.10;2.20;;;11.40;99.90;;;;;;467888;254;28547;-69
2022/09/21 08:56:42;;;;;;;3.30;2.33;;;11.50;99.90;;;;;;467814;254;28036;-69
2022/09/21 08:58:43;;;;;;;2.40;2.07;;;11.60;99.90;;;;;;467862;254;28164;-69
2022/09/21 09:00:46;;;;;;;2.37;1.90;;;11.60;99.90;;;;;;467882;254;28085;-68
2022/09/21 09:02:46;;;;;;;2.53;2.37;;;11.60;99.90;;;;;;467768;254;28169;-68
2022/09/21 09:04:48;;;;;;;5.10;2.40;;;11.60;99.90;;;;;;467855;254;27969;-71
2022/09/21 09:06:49;;;;;;;4.47;2.20;;;11.90;99.90;;;;;;467782;254;28131;-69
2022/09/21 09:08:51;;;;;;;2.47;1.90;;;11.60;99.90;;;;;;467868;254;28080;-70
2022/09/21 09:10:51;;;;;;;3.13;2.40;;;11.60;99.90;;;;;;467813;254;28159;-73
2022/09/21 09:12:52;;;;;;;2.37;2.13;;;11.60;99.90;;;;;;467879;250;28174;-68
2022/09/21 09:14:54;;;;;;;2.10;1.90;;;11.70;99.90;;;;;;467864;254;28570;-71
2022/09/21 09:16:55;;;;;;;2.17;1.87;;;11.80;99.90;;;;;;467817;254;28717;-69
2022/09/21 09:18:56;;;;;;;3.60;2.10;;;11.80;99.90;;;;;;467868;254;28591;-70
2022/09/21 09:20:57;;;;;;;2.13;1.93;;;11.80;99.90;;;;;;467868;254;28676;-69
2022/09/21 09:22:59;;;;;;;2.00;1.87;;;11.70;99.90;;;;;;467853;254;27908;-69
2022/09/21 09:25:00;;;;;;;4.53;1.90;;;11.60;99.90;;;;;;467893;254;28082;-70
2022/09/21 09:27:01;;;;;;;2.03;1.93;;;11.80;99.90;;;;;;467774;254;28121;-68
2022/09/21 09:29:02;;;;;;;2.70;1.90;;;11.70;99.90;;;;;;467863;254;28140;-69
2022/09/21 09:31:04;;;;;;;3.00;1.90;;;11.80;99.90;;;;;;467867;254;28242;-69
2022/09/21 09:33:05;;;;;;;2.07;1.77;;;11.80;99.90;;;;;;467853;250;28104;-68
2022/09/21 09:35:06;;;;;;;2.93;1.93;;;11.70;99.90;;;;;;467863;254;28025;-71
2022/09/21 09:37:07;;;;;;;3.73;2.00;;;11.80;99.90;;;;;;467789;254;28202;-69
2022/09/21 09:39:09;;;;;;;4.47;2.10;;;11.90;99.90;;;;;;467860;254;28661;-69
2022/09/21 09:41:10;;;;;;;2.70;2.20;;;11.80;99.90;;;;;;467827;254;28595;-69
2022/09/21 09:43:11;;;;;;;6.93;1.93;;;11.80;99.90;;;;;;467842;254;28552;-69
2022/09/21 09:45:12;;;;;;;2.10;1.80;;;11.90;99.90;;;;;;467863;254;28056;-71
2022/09/21 09:47:14;;;;;;;3.80;1.73;;;12.00;99.90;;;;;;467798;254;28110;-68
2022/09/21 09:49:15;;;;;;;3.20;1.70;;;12.00;99.90;;;;;;467816;254;28163;-70
2022/09/21 09:51:18;;;;;;;4.50;1.80;;;11.90;99.90;;;;;;467862;254;28216;-68
2022/09/21 09:53:17;;;;;;;4.10;1.80;;;11.90;99.90;;;;;;467784;254;27937;-69
2022/09/21 09:55:19;;;;;;;3.33;1.90;;;12.10;99.90;;;;;;467733;254;28184;-72
2022/09/21 09:57:20;;;;;;;6.07;1.70;;;12.20;99.90;;;;;;467782;254;28228;-69
2022/09/21 09:59:21;;;;;;;3.03;1.80;;;12.10;99.90;;;;;;467867;254;28261;-69
2022/09/21 10:01:22;;;;;;;4.57;1.93;;;12.10;99.90;;;;;;467919;254;27938;-69
2022/09/21 10:03:24;;;;;;;3.00;1.90;;;12.20;99.90;;;;;;467875;254;28742;-68
2022/09/21 10:05:25;;;;;;;3.60;1.87;;;12.10;99.90;;;;;;467857;254;28916;-71
2022/09/21 10:07:26;;;;;;;2.10;1.70;;;12.10;99.90;;;;;;467810;254;28636;-69
2022/09/21 10:09:27;;;;;;;2.10;1.90;;;12.10;99.90;;;;;;467862;254;28760;-68
2022/09/21 10:11:29;;;;;;;3.47;2.17;;;12.10;99.90;;;;;;467850;254;28257;-69
2022/09/21 10:13:30;;;;;;;3.90;1.90;;;12.00;99.90;;;;;;467870;254;28272;-69
2022/09/21 10:15:31;;;;;;;1.73;1.50;;;12.00;99.90;;;;;;467869;254;28073;-72
2022/09/21 10:17:32;;;;;;;2.93;1.90;;;12.30;99.90;;;;;;467810;254;28245;-69
2022/09/21 10:19:36;;;;;;;2.00;1.90;;;;;;;;;;467836;254;28515;-68
2022/09/21 10:21:36;;;;;;;5.40;1.80;;;12.30;99.90;;;;;;467755;254;27692;-69
2022/09/21 10:23:37;;;;;;;1.70;1.60;;;12.30;99.90;;;;;;467851;254;28088;-73
2022/09/21 10:25:39;;;;;;;1.60;1.50;;;12.40;99.90;;;;;;467871;254;28287;-68
2022/09/21 10:27:40;;;;;;;2.10;2.00;;;12.30;99.90;;;;;;467798;254;28313;-69
2022/09/21 10:29:41;;;;;;;3.30;2.20;;;12.30;99.90;;;;;;467830;254;28266;-68
2022/09/21 10:31:42;;;;;;;1.80;1.70;;;12.30;99.90;;;;;;467847;254;28278;-68
2022/09/21 10:33:44;;;;;;;6.60;1.70;;;12.30;99.90;;;;;;467863;254;28303;-73
2022/09/21 10:35:45;;;;;;;4.27;1.67;;;12.30;99.90;;;;;;467852;254;28361;-69
2022/09/21 10:37:53;;;;;;;1.60;1.50;;;12.60;99.90;;;;;;467698;254;28445;-70
2022/09/21 10:39:51;;;;;;;2.00;1.70;;;12.80;99.90;;;;;;467612;254;28332;-69
2022/09/21 10:41:52;;;;;;;1.50;1.40;;;12.80;99.90;;;;;;467838;254;29016;-71